Time;durP1;ratioP1;P1;durP2;ratioP2;P2;SDS_P1;SDS_P2;PMS_P1;PMS_P2;Temp;Humidity;BMP_temperature;BMP_pressure;BME280_temperature;BME280_humidity;BME280_pressure;Samples;Min_cycle;Max_cycle;Signal;HPM_P1;HPM_P2
2021/08/22 00:12:21;;;;;;;5.67;2.63;;;;;;;16.79;70.98;100843.33;21080232;80;99253;-84
2021/08/22 00:42:36;;;;;;;5.30;2.52;;;;;;;16.72;70.94;100837.83;20592419;81;99529;-84
2021/08/22 01:12:54;;;;;;;7.23;2.33;;;;;;;16.64;69.89;100821.62;20576372;83;99251;-84
2021/08/22 01:42:56;;;;;;;7.53;3.77;;;;;;;16.70;69.06;100806.89;21108864;82;99542;-85
2021/08/22 02:13:02;;;;;;;7.03;3.83;;;;;;;16.67;70.45;100816.02;21101248;81;99741;-85
2021/08/22 02:43:03;;;;;;;6.50;3.17;;;;;;;16.50;72.95;100791.14;21100667;80;100056;-85
2021/08/22 03:13:04;;;;;;;6.53;2.47;;;;;;;16.28;72.42;100756.34;21080231;82;99752;-85
2021/08/22 03:43:05;;;;;;;;;;;;;;;16.02;70.63;100738.27;21066962;80;99264;-85
2021/08/22 04:13:07;;;;;;;4.25;2.45;;;;;;;15.97;70.02;100741.47;21091911;80;85466;-84
2021/08/22 04:43:08;;;;;;;6.80;3.07;;;;;;;15.89;71.13;100744.69;21165532;80;99310;-83
2021/08/22 05:13:09;;;;;;;8.23;3.70;;;;;;;16.10;71.05;100732.88;21166523;80;99514;-85
2021/08/22 05:43:09;;;;;;;8.23;4.10;;;;;;;16.31;71.11;100729.95;21102914;81;99483;-85
2021/08/22 06:13:10;;;;;;;11.10;5.87;;;;;;;16.95;72.60;100733.00;21117767;81;99680;-85
2021/08/22 06:43:11;;;;;;;11.03;6.63;;;;;;;18.41;70.71;100705.25;21070223;81;99720;-85
2021/08/22 07:13:12;;;;;;;9.63;5.90;;;;;;;19.53;70.95;100700.39;21089605;80;99825;-86
2021/08/22 07:43:16;;;;;;;10.58;6.15;;;;;;;20.36;69.08;100702.49;21041752;81;153372;-85
2021/08/22 08:13:17;;;;;;;11.40;5.87;;;;;;;21.10;68.07;100706.19;21064559;80;100036;-87
2021/08/22 08:43:18;;;;;;;10.08;6.22;;;;;;;22.55;65.37;100706.38;21092665;81;99672;-84
2021/08/22 09:13:37;;;;;;;8.70;5.60;;;;;;;24.47;62.23;100682.88;21093620;80;99957;-85
2021/08/22 09:44:26;;;;;;;7.85;4.65;;;;;;;27.56;57.19;100685.72;21060334;82;99449;-84
2021/08/22 10:14:33;;;;;;;8.88;4.70;;;;;;;30.08;51.47;100674.80;21162474;81;99719;-89
2021/08/22 10:44:42;;;;;;;9.70;5.40;;;;;;;29.68;49.66;100672.91;21075599;80;99539;-85
2021/08/22 11:14:46;;;;;;;9.48;5.67;;;;;;;29.52;45.57;100644.34;21054465;81;99639;-88
2021/08/22 11:44:48;;;;;;;9.93;6.00;;;;;;;29.27;45.25;100629.55;21115354;81;99988;-85
2021/08/22 12:14:50;;;;;;;7.50;4.50;;;;;;;28.44;45.22;100617.86;20653798;83;99428;-85
2021/08/22 12:44:52;;;;;;;6.57;4.20;;;;;;;28.54;46.92;100606.52;20622561;82;99520;-86
2021/08/22 13:14:52;;;;;;;8.20;5.00;;;;;;;27.50;46.36;100587.29;20531198;83;99343;-85
2021/08/22 13:44:53;;;;;;;8.03;4.60;;;;;;;26.96;49.09;100566.02;20980747;81;99510;-85
2021/08/22 14:14:55;;;;;;;8.18;5.20;;;;;;;26.22;50.15;100547.94;20914859;81;99154;-85
2021/08/22 14:44:55;;;;;;;8.48;5.28;;;;;;;25.60;52.00;100527.28;20726345;83;99529;-86
2021/08/22 15:14:56;;;;;;;8.00;4.80;;;;;;;25.15;54.03;100509.13;20528245;83;99570;-86
2021/08/22 15:44:57;;;;;;;8.45;5.40;;;;;;;24.96;55.20;100504.02;20951252;82;99330;-87
2021/08/22 16:14:58;;;;;;;8.13;5.60;;;;;;;24.31;57.13;100489.67;21038150;81;99592;-86
2021/08/22 16:44:59;;;;;;;12.45;9.35;;;;;;;23.74;59.63;100494.10;20930654;82;99666;-81
2021/08/22 17:15:00;;;;;;;14.03;9.60;;;;;;;22.40;66.41;100573.42;20914520;82;99649;-84
2021/08/22 17:45:01;;;;;;;15.28;11.00;;;;;;;21.17;72.55;100560.44;21028080;82;99612;-87
2021/08/22 18:15:07;;;;;;;16.80;12.87;;;;;;;20.68;75.99;100542.26;21006687;82;99853;-87
2021/08/22 18:45:09;;;;;;;19.48;14.58;;;;;;;20.21;78.66;100562.14;21127717;80;100166;-83
2021/08/22 19:15:11;;;;;;;21.12;15.88;;;;;;;19.49;84.41;100583.81;21207450;80;100499;-87
2021/08/22 19:45:14;;;;;;;16.52;12.50;;;;;;;19.05;87.24;100592.72;20306441;84;100168;-87
2021/08/22 20:15:15;;;;;;;17.55;14.80;;;;;;;18.91;87.43;100619.49;20536695;83;100282;-87
2021/08/22 20:45:18;;;;;;;18.67;14.37;;;;;;;18.95;87.56;100627.78;20930437;82;99956;-87
2021/08/22 21:15:20;;;;;;;18.00;13.40;;;;;;;18.89;88.15;100620.54;21046223;81;99932;-85
2021/08/22 21:45:22;;;;;;;16.23;11.78;;;;;;;18.46;91.91;100621.75;21103268;80;100081;-90
2021/08/22 22:15:23;;;;;;;18.70;11.85;;;;;;;17.81;95.46;100591.78;21089078;81;100754;-85
2021/08/22 22:45:24;;;;;;;14.63;10.23;;;;;;;17.55;97.35;100593.37;21069957;82;100368;-85
2021/08/22 23:15:25;;;;;;;15.00;10.60;;;;;;;17.42;97.16;100592.97;21071913;80;100041;-83
2021/08/22 23:45:26;;;;;;;16.17;11.07;;;;;;;17.18;98.91;100580.97;21067644;81;100254;-85
